sensor_id;sensor_type;location;lat;lon;timestamp;P1;durP1;ratioP1;P2;durP2;ratioP2
48516;SDS011;34310;51.904;4.256;2023-07-08T00:01:18;13.02;;;10.23;;
48516;SDS011;34310;51.904;4.256;2023-07-08T00:03:46;10.68;;;9.55;;
48516;SDS011;34310;51.904;4.256;2023-07-08T00:06:19;11.60;;;10.40;;
48516;SDS011;34310;51.904;4.256;2023-07-08T00:08:48;11.23;;;10.02;;
48516;SDS011;34310;51.904;4.256;2023-07-08T00:11:16;10.30;;;9.30;;
48516;SDS011;34310;51.904;4.256;2023-07-08T00:13:44;12.43;;;10.38;;
48516;SDS011;34310;51.904;4.256;2023-07-08T00:16:13;12.15;;;10.18;;
48516;SDS011;34310;51.904;4.256;2023-07-08T00:18:43;10.00;;;9.00;;
48516;SDS011;34310;51.904;4.256;2023-07-08T00:21:11;10.43;;;9.05;;
48516;SDS011;34310;51.904;4.256;2023-07-08T00:23:46;9.90;;;8.90;;
48516;SDS011;34310;51.904;4.256;2023-07-08T00:28:50;10.70;;;9.18;;
48516;SDS011;34310;51.904;4.256;2023-07-08T00:31:18;9.88;;;8.88;;
48516;SDS011;34310;51.904;4.256;2023-07-08T00:33:51;10.02;;;8.90;;
48516;SDS011;34310;51.904;4.256;2023-07-08T00:36:22;10.23;;;8.93;;
48516;SDS011;34310;51.904;4.256;2023-07-08T00:38:54;8.93;;;8.02;;
48516;SDS011;34310;51.904;4.256;2023-07-08T00:41:30;9.73;;;8.40;;
48516;SDS011;34310;51.904;4.256;2023-07-08T00:44:01;9.48;;;7.95;;
48516;SDS011;34310;51.904;4.256;2023-07-08T00:51:34;8.90;;;8.00;;
48516;SDS011;34310;51.904;4.256;2023-07-08T00:54:04;8.77;;;7.63;;
48516;SDS011;34310;51.904;4.256;2023-07-08T00:56:44;8.70;;;7.80;;
48516;SDS011;34310;51.904;4.256;2023-07-08T00:59:33;7.60;;;6.80;;
48516;SDS011;34310;51.904;4.256;2023-07-08T01:02:06;8.98;;;7.50;;
48516;SDS011;34310;51.904;4.256;2023-07-08T01:04:38;8.45;;;7.43;;
48516;SDS011;34310;51.904;4.256;2023-07-08T01:07:14;8.50;;;7.47;;
48516;SDS011;34310;51.904;4.256;2023-07-08T01:09:48;7.93;;;7.13;;
48516;SDS011;34310;51.904;4.256;2023-07-08T01:12:25;10.05;;;7.50;;
48516;SDS011;34310;51.904;4.256;2023-07-08T01:14:55;7.13;;;6.43;;
48516;SDS011;34310;51.904;4.256;2023-07-08T01:17:25;8.23;;;7.40;;
48516;SDS011;34310;51.904;4.256;2023-07-08T01:19:59;7.93;;;7.13;;
48516;SDS011;34310;51.904;4.256;2023-07-08T01:22:34;7.88;;;6.78;;
48516;SDS011;34310;51.904;4.256;2023-07-08T01:25:02;8.40;;;7.13;;
48516;SDS011;34310;51.904;4.256;2023-07-08T01:27:31;7.75;;;6.75;;
48516;SDS011;34310;51.904;4.256;2023-07-08T01:30:02;7.97;;;7.18;;
48516;SDS011;34310;51.904;4.256;2023-07-08T01:32:30;8.57;;;6.65;;
48516;SDS011;34310;51.904;4.256;2023-07-08T01:35:00;8.20;;;7.20;;
48516;SDS011;34310;51.904;4.256;2023-07-08T01:37:29;7.30;;;6.60;;
48516;SDS011;34310;51.904;4.256;2023-07-08T01:39:58;9.50;;;7.28;;
48516;SDS011;34310;51.904;4.256;2023-07-08T01:42:50;7.07;;;6.38;;
48516;SDS011;34310;51.904;4.256;2023-07-08T01:45:19;7.00;;;6.28;;
48516;SDS011;34310;51.904;4.256;2023-07-08T01:47:52;6.90;;;6.20;;
48516;SDS011;34310;51.904;4.256;2023-07-08T01:50:51;9.02;;;6.65;;
48516;SDS011;34310;51.904;4.256;2023-07-08T01:53:58;6.93;;;6.22;;
48516;SDS011;34310;51.904;4.256;2023-07-08T01:56:18;7.10;;;6.40;;
48516;SDS011;34310;51.904;4.256;2023-07-08T01:58:45;6.75;;;6.05;;
48516;SDS011;34310;51.904;4.256;2023-07-08T02:01:13;8.00;;;5.70;;
48516;SDS011;34310;51.904;4.256;2023-07-08T02:03:40;7.00;;;6.30;;
48516;SDS011;34310;51.904;4.256;2023-07-08T02:06:10;6.40;;;5.80;;
48516;SDS011;34310;51.904;4.256;2023-07-08T02:08:37;6.78;;;6.07;;
48516;SDS011;34310;51.904;4.256;2023-07-08T02:11:05;6.60;;;5.90;;
48516;SDS011;34310;51.904;4.256;2023-07-08T02:13:32;6.53;;;5.60;;
48516;SDS011;34310;51.904;4.256;2023-07-08T02:16:01;7.15;;;6.10;;
48516;SDS011;34310;51.904;4.256;2023-07-08T02:18:28;6.18;;;5.57;;
48516;SDS011;34310;51.904;4.256;2023-07-08T02:20:58;6.28;;;5.68;;
48516;SDS011;34310;51.904;4.256;2023-07-08T02:23:26;6.95;;;5.60;;
48516;SDS011;34310;51.904;4.256;2023-07-08T02:25:54;6.57;;;5.57;;
48516;SDS011;34310;51.904;4.256;2023-07-08T02:28:22;5.80;;;5.20;;
48516;SDS011;34310;51.904;4.256;2023-07-08T02:30:49;6.75;;;5.57;;
48516;SDS011;34310;51.904;4.256;2023-07-08T02:33:17;5.80;;;5.25;;
48516;SDS011;34310;51.904;4.256;2023-07-08T02:35:44;7.25;;;5.68;;
48516;SDS011;34310;51.904;4.256;2023-07-08T02:38:12;5.63;;;5.13;;
48516;SDS011;34310;51.904;4.256;2023-07-08T02:40:39;5.82;;;5.22;;
48516;SDS011;34310;51.904;4.256;2023-07-08T02:43:07;5.72;;;5.18;;
48516;SDS011;34310;51.904;4.256;2023-07-08T02:45:34;5.50;;;5.00;;
48516;SDS011;34310;51.904;4.256;2023-07-08T02:48:03;5.32;;;4.80;;
48516;SDS011;34310;51.904;4.256;2023-07-08T02:50:30;5.40;;;4.90;;
48516;SDS011;34310;51.904;4.256;2023-07-08T02:52:58;5.32;;;4.55;;
48516;SDS011;34310;51.904;4.256;2023-07-08T02:55:25;5.53;;;5.03;;
48516;SDS011;34310;51.904;4.256;2023-07-08T02:57:52;5.00;;;4.60;;
48516;SDS011;34310;51.904;4.256;2023-07-08T03:00:20;5.45;;;4.93;;
48516;SDS011;34310;51.904;4.256;2023-07-08T03:02:47;5.15;;;4.50;;
48516;SDS011;34310;51.904;4.256;2023-07-08T03:05:14;5.43;;;4.50;;
48516;SDS011;34310;51.904;4.256;2023-07-08T03:07:42;5.50;;;4.50;;
48516;SDS011;34310;51.904;4.256;2023-07-08T03:10:09;4.90;;;4.40;;
48516;SDS011;34310;51.904;4.256;2023-07-08T03:12:36;5.65;;;4.50;;
48516;SDS011;34310;51.904;4.256;2023-07-08T03:15:04;5.10;;;4.32;;
48516;SDS011;34310;51.904;4.256;2023-07-08T03:17:32;4.13;;;3.72;;
48516;SDS011;34310;51.904;4.256;2023-07-08T03:20:00;4.80;;;4.32;;
48516;SDS011;34310;51.904;4.256;2023-07-08T03:22:27;4.63;;;4.22;;
48516;SDS011;34310;51.904;4.256;2023-07-08T03:24:54;5.13;;;4.13;;
48516;SDS011;34310;51.904;4.256;2023-07-08T03:27:22;4.40;;;4.00;;
48516;SDS011;34310;51.904;4.256;2023-07-08T03:29:49;4.30;;;3.90;;
48516;SDS011;34310;51.904;4.256;2023-07-08T03:32:16;4.55;;;4.15;;
48516;SDS011;34310;51.904;4.256;2023-07-08T03:34:44;4.22;;;3.83;;
48516;SDS011;34310;51.904;4.256;2023-07-08T03:37:11;4.25;;;3.80;;
48516;SDS011;34310;51.904;4.256;2023-07-08T03:39:39;4.45;;;4.05;;
48516;SDS011;34310;51.904;4.256;2023-07-08T03:42:06;4.45;;;4.00;;
48516;SDS011;34310;51.904;4.256;2023-07-08T03:44:34;4.05;;;3.70;;
48516;SDS011;34310;51.904;4.256;2023-07-08T03:47:01;3.92;;;3.47;;
48516;SDS011;34310;51.904;4.256;2023-07-08T03:49:29;4.97;;;3.60;;
48516;SDS011;34310;51.904;4.256;2023-07-08T03:51:56;3.95;;;3.55;;
48516;SDS011;34310;51.904;4.256;2023-07-08T03:54:24;4.18;;;3.75;;
48516;SDS011;34310;51.904;4.256;2023-07-08T03:56:52;4.10;;;3.63;;
48516;SDS011;34310;51.904;4.256;2023-07-08T03:59:19;3.90;;;3.25;;
48516;SDS011;34310;51.904;4.256;2023-07-08T04:01:46;4.13;;;3.67;;
48516;SDS011;34310;51.904;4.256;2023-07-08T04:04:15;3.45;;;3.03;;
48516;SDS011;34310;51.904;4.256;2023-07-08T04:06:43;4.35;;;3.53;;
48516;SDS011;34310;51.904;4.256;2023-07-08T04:09:11;5.00;;;3.60;;
48516;SDS011;34310;51.904;4.256;2023-07-08T04:11:39;3.53;;;3.22;;
48516;SDS011;34310;51.904;4.256;2023-07-08T04:14:07;4.05;;;3.63;;
48516;SDS011;34310;51.904;4.256;2023-07-08T04:19:18;3.63;;;3.13;;
48516;SDS011;34310;51.904;4.256;2023-07-08T04:21:46;4.38;;;3.65;;
48516;SDS011;34310;51.904;4.256;2023-07-08T04:24:14;3.58;;;3.28;;
48516;SDS011;34310;51.904;4.256;2023-07-08T04:26:43;3.50;;;3.20;;
48516;SDS011;34310;51.904;4.256;2023-07-08T04:29:13;3.75;;;3.22;;
48516;SDS011;34310;51.904;4.256;2023-07-08T04:31:43;3.38;;;3.08;;
48516;SDS011;34310;51.904;4.256;2023-07-08T04:34:11;3.35;;;3.05;;
48516;SDS011;34310;51.904;4.256;2023-07-08T04:36:39;3.30;;;3.00;;
48516;SDS011;34310;51.904;4.256;2023-07-08T04:39:07;4.32;;;3.00;;
48516;SDS011;34310;51.904;4.256;2023-07-08T04:41:36;3.10;;;2.80;;
48516;SDS011;34310;51.904;4.256;2023-07-08T04:44:08;3.38;;;3.08;;
48516;SDS011;34310;51.904;4.256;2023-07-08T04:46:47;3.28;;;2.97;;
48516;SDS011;34310;51.904;4.256;2023-07-08T04:49:21;3.58;;;2.70;;
48516;SDS011;34310;51.904;4.256;2023-07-08T04:51:50;3.13;;;2.83;;
48516;SDS011;34310;51.904;4.256;2023-07-08T04:54:20;4.65;;;2.70;;
48516;SDS011;34310;51.904;4.256;2023-07-08T04:56:48;3.28;;;2.90;;
48516;SDS011;34310;51.904;4.256;2023-07-08T04:59:17;2.70;;;2.50;;
48516;SDS011;34310;51.904;4.256;2023-07-08T05:01:46;3.45;;;3.15;;
48516;SDS011;34310;51.904;4.256;2023-07-08T05:04:16;3.38;;;2.63;;
48516;SDS011;34310;51.904;4.256;2023-07-08T05:06:45;2.72;;;2.53;;
48516;SDS011;34310;51.904;4.256;2023-07-08T05:09:13;2.80;;;2.50;;
48516;SDS011;34310;51.904;4.256;2023-07-08T05:11:43;3.05;;;2.78;;
48516;SDS011;34310;51.904;4.256;2023-07-08T05:14:11;2.97;;;2.67;;
48516;SDS011;34310;51.904;4.256;2023-07-08T05:16:39;2.55;;;2.25;;
48516;SDS011;34310;51.904;4.256;2023-07-08T05:19:07;2.65;;;2.45;;
48516;SDS011;34310;51.904;4.256;2023-07-08T05:21:35;2.97;;;2.60;;
48516;SDS011;34310;51.904;4.256;2023-07-08T05:24:04;2.75;;;2.55;;
48516;SDS011;34310;51.904;4.256;2023-07-08T05:26:33;2.90;;;2.70;;
48516;SDS011;34310;51.904;4.256;2023-07-08T05:29:01;5.70;;;2.90;;
48516;SDS011;34310;51.904;4.256;2023-07-08T05:31:28;3.95;;;2.40;;
48516;SDS011;34310;51.904;4.256;2023-07-08T05:33:58;2.90;;;2.60;;
48516;SDS011;34310;51.904;4.256;2023-07-08T05:36:26;2.70;;;2.50;;
48516;SDS011;34310;51.904;4.256;2023-07-08T05:38:53;2.70;;;2.50;;
48516;SDS011;34310;51.904;4.256;2023-07-08T05:41:21;3.15;;;2.55;;
48516;SDS011;34310;51.904;4.256;2023-07-08T05:43:49;2.88;;;2.58;;
48516;SDS011;34310;51.904;4.256;2023-07-08T05:46:16;3.25;;;2.95;;
48516;SDS011;34310;51.904;4.256;2023-07-08T05:48:44;2.92;;;2.63;;
48516;SDS011;34310;51.904;4.256;2023-07-08T05:51:11;2.50;;;2.30;;
48516;SDS011;34310;51.904;4.256;2023-07-08T05:53:38;2.60;;;2.40;;
48516;SDS011;34310;51.904;4.256;2023-07-08T05:56:06;2.58;;;2.38;;
48516;SDS011;34310;51.904;4.256;2023-07-08T05:58:33;3.38;;;2.35;;
48516;SDS011;34310;51.904;4.256;2023-07-08T06:01:00;2.60;;;2.25;;
48516;SDS011;34310;51.904;4.256;2023-07-08T06:03:29;3.00;;;2.35;;
48516;SDS011;34310;51.904;4.256;2023-07-08T06:05:56;2.47;;;2.28;;
48516;SDS011;34310;51.904;4.256;2023-07-08T06:08:24;2.72;;;2.22;;
48516;SDS011;34310;51.904;4.256;2023-07-08T06:10:51;2.55;;;2.30;;
48516;SDS011;34310;51.904;4.256;2023-07-08T06:13:18;3.33;;;2.47;;
48516;SDS011;34310;51.904;4.256;2023-07-08T06:15:46;2.40;;;2.20;;
48516;SDS011;34310;51.904;4.256;2023-07-08T06:18:13;2.78;;;2.47;;
48516;SDS011;34310;51.904;4.256;2023-07-08T06:20:41;2.33;;;2.13;;
48516;SDS011;34310;51.904;4.256;2023-07-08T06:23:16;2.67;;;2.47;;
48516;SDS011;34310;51.904;4.256;2023-07-08T06:25:43;2.80;;;2.20;;
48516;SDS011;34310;51.904;4.256;2023-07-08T06:28:11;6.13;;;3.03;;
48516;SDS011;34310;51.904;4.256;2023-07-08T06:30:38;8.13;;;3.17;;
48516;SDS011;34310;51.904;4.256;2023-07-08T06:33:06;7.93;;;3.50;;
48516;SDS011;34310;51.904;4.256;2023-07-08T06:35:33;8.40;;;3.72;;
48516;SDS011;34310;51.904;4.256;2023-07-08T06:38:00;9.68;;;3.63;;
48516;SDS011;34310;51.904;4.256;2023-07-08T06:40:28;9.57;;;4.30;;
48516;SDS011;34310;51.904;4.256;2023-07-08T06:42:55;9.85;;;4.93;;
48516;SDS011;34310;51.904;4.256;2023-07-08T06:45:23;9.25;;;4.45;;
48516;SDS011;34310;51.904;4.256;2023-07-08T06:47:50;8.60;;;4.43;;
48516;SDS011;34310;51.904;4.256;2023-07-08T06:50:18;11.65;;;4.85;;
48516;SDS011;34310;51.904;4.256;2023-07-08T06:52:45;8.70;;;4.43;;
48516;SDS011;34310;51.904;4.256;2023-07-08T06:55:13;8.35;;;4.88;;
48516;SDS011;34310;51.904;4.256;2023-07-08T06:57:41;8.38;;;4.68;;
48516;SDS011;34310;51.904;4.256;2023-07-08T07:00:08;8.85;;;4.20;;
48516;SDS011;34310;51.904;4.256;2023-07-08T07:02:37;9.48;;;4.70;;
48516;SDS011;34310;51.904;4.256;2023-07-08T07:05:05;9.63;;;4.68;;
48516;SDS011;34310;51.904;4.256;2023-07-08T07:07:33;9.95;;;4.90;;
48516;SDS011;34310;51.904;4.256;2023-07-08T07:10:01;9.82;;;4.50;;
48516;SDS011;34310;51.904;4.256;2023-07-08T07:12:29;11.95;;;4.68;;
48516;SDS011;34310;51.904;4.256;2023-07-08T07:14:56;9.95;;;4.97;;
48516;SDS011;34310;51.904;4.256;2023-07-08T07:17:24;11.15;;;4.85;;
48516;SDS011;34310;51.904;4.256;2023-07-08T07:19:53;12.10;;;4.82;;
48516;SDS011;34310;51.904;4.256;2023-07-08T07:22:21;8.35;;;4.53;;
48516;SDS011;34310;51.904;4.256;2023-07-08T07:24:49;14.10;;;4.70;;
48516;SDS011;34310;51.904;4.256;2023-07-08T07:27:17;8.98;;;4.70;;
48516;SDS011;34310;51.904;4.256;2023-07-08T07:29:45;8.95;;;4.60;;
48516;SDS011;34310;51.904;4.256;2023-07-08T07:32:14;9.15;;;4.35;;
48516;SDS011;34310;51.904;4.256;2023-07-08T07:34:42;7.20;;;4.32;;
48516;SDS011;34310;51.904;4.256;2023-07-08T07:37:14;8.50;;;4.68;;
48516;SDS011;34310;51.904;4.256;2023-07-08T07:39:44;6.95;;;4.40;;
48516;SDS011;34310;51.904;4.256;2023-07-08T07:42:12;9.50;;;4.38;;
48516;SDS011;34310;51.904;4.256;2023-07-08T07:44:43;10.95;;;4.30;;
48516;SDS011;34310;51.904;4.256;2023-07-08T07:47:11;6.80;;;4.20;;
48516;SDS011;34310;51.904;4.256;2023-07-08T07:49:39;7.15;;;4.22;;
48516;SDS011;34310;51.904;4.256;2023-07-08T07:52:07;6.07;;;4.00;;
48516;SDS011;34310;51.904;4.256;2023-07-08T07:54:37;6.95;;;4.30;;
48516;SDS011;34310;51.904;4.256;2023-07-08T07:57:05;10.65;;;4.50;;
48516;SDS011;34310;51.904;4.256;2023-07-08T07:59:33;7.28;;;4.15;;
48516;SDS011;34310;51.904;4.256;2023-07-08T08:02:00;5.88;;;4.00;;
48516;SDS011;34310;51.904;4.256;2023-07-08T08:04:28;6.95;;;4.00;;
48516;SDS011;34310;51.904;4.256;2023-07-08T08:06:55;7.20;;;4.32;;
48516;SDS011;34310;51.904;4.256;2023-07-08T08:09:22;5.78;;;3.85;;
48516;SDS011;34310;51.904;4.256;2023-07-08T08:11:50;6.00;;;3.70;;
48516;SDS011;34310;51.904;4.256;2023-07-08T08:14:18;6.72;;;3.70;;
48516;SDS011;34310;51.904;4.256;2023-07-08T08:16:45;7.22;;;4.13;;
48516;SDS011;34310;51.904;4.256;2023-07-08T08:19:13;7.10;;;3.80;;
48516;SDS011;34310;51.904;4.256;2023-07-08T08:21:40;6.03;;;3.83;;
48516;SDS011;34310;51.904;4.256;2023-07-08T08:24:07;8.40;;;4.10;;
48516;SDS011;34310;51.904;4.256;2023-07-08T08:26:35;5.68;;;4.05;;
48516;SDS011;34310;51.904;4.256;2023-07-08T08:29:02;5.95;;;4.00;;
48516;SDS011;34310;51.904;4.256;2023-07-08T08:31:30;5.95;;;3.85;;
48516;SDS011;34310;51.904;4.256;2023-07-08T08:34:00;5.70;;;3.60;;
48516;SDS011;34310;51.904;4.256;2023-07-08T08:36:27;5.47;;;3.90;;
48516;SDS011;34310;51.904;4.256;2023-07-08T08:38:55;7.15;;;3.78;;
48516;SDS011;34310;51.904;4.256;2023-07-08T08:41:29;6.95;;;3.78;;
48516;SDS011;34310;51.904;4.256;2023-07-08T08:43:58;5.10;;;3.45;;
48516;SDS011;34310;51.904;4.256;2023-07-08T08:49:18;4.95;;;3.78;;
48516;SDS011;34310;51.904;4.256;2023-07-08T08:51:52;5.82;;;4.18;;
48516;SDS011;34310;51.904;4.256;2023-07-08T08:54:20;4.85;;;3.50;;
48516;SDS011;34310;51.904;4.256;2023-07-08T08:57:06;4.93;;;3.58;;
48516;SDS011;34310;51.904;4.256;2023-07-08T08:59:49;5.63;;;3.47;;
48516;SDS011;34310;51.904;4.256;2023-07-08T09:05:09;6.05;;;3.85;;
48516;SDS011;34310;51.904;4.256;2023-07-08T09:07:44;6.38;;;3.70;;
48516;SDS011;34310;51.904;4.256;2023-07-08T09:13:44;4.35;;;3.50;;
48516;SDS011;34310;51.904;4.256;2023-07-08T09:19:07;5.28;;;3.22;;
48516;SDS011;34310;51.904;4.256;2023-07-08T09:22:03;5.60;;;3.60;;
48516;SDS011;34310;51.904;4.256;2023-07-08T09:24:44;5.95;;;3.63;;
48516;SDS011;34310;51.904;4.256;2023-07-08T09:27:24;5.63;;;3.50;;
48516;SDS011;34310;51.904;4.256;2023-07-08T09:29:52;4.55;;;3.47;;
48516;SDS011;34310;51.904;4.256;2023-07-08T09:32:20;5.72;;;3.58;;
48516;SDS011;34310;51.904;4.256;2023-07-08T09:34:54;5.15;;;3.67;;
48516;SDS011;34310;51.904;4.256;2023-07-08T09:37:29;5.45;;;4.07;;
48516;SDS011;34310;51.904;4.256;2023-07-08T09:39:58;4.45;;;3.60;;
48516;SDS011;34310;51.904;4.256;2023-07-08T09:42:28;5.70;;;3.47;;
48516;SDS011;34310;51.904;4.256;2023-07-08T09:45:01;4.88;;;3.53;;
48516;SDS011;34310;51.904;4.256;2023-07-08T09:47:37;5.82;;;3.65;;
48516;SDS011;34310;51.904;4.256;2023-07-08T09:50:17;5.80;;;3.95;;
48516;SDS011;34310;51.904;4.256;2023-07-08T09:52:48;4.97;;;3.88;;
48516;SDS011;34310;51.904;4.256;2023-07-08T09:55:16;4.95;;;4.00;;
48516;SDS011;34310;51.904;4.256;2023-07-08T09:57:45;5.60;;;3.42;;
48516;SDS011;34310;51.904;4.256;2023-07-08T10:00:15;5.38;;;3.80;;
48516;SDS011;34310;51.904;4.256;2023-07-08T10:02:46;5.47;;;3.90;;
48516;SDS011;34310;51.904;4.256;2023-07-08T10:05:41;5.35;;;3.90;;
48516;SDS011;34310;51.904;4.256;2023-07-08T10:08:22;4.18;;;3.45;;
48516;SDS011;34310;51.904;4.256;2023-07-08T10:11:36;4.93;;;3.65;;
48516;SDS011;34310;51.904;4.256;2023-07-08T10:14:12;5.25;;;4.15;;
48516;SDS011;34310;51.904;4.256;2023-07-08T10:16:46;4.53;;;3.60;;
48516;SDS011;34310;51.904;4.256;2023-07-08T10:19:15;5.57;;;3.75;;
48516;SDS011;34310;51.904;4.256;2023-07-08T10:27:39;4.80;;;4.30;;
48516;SDS011;34310;51.904;4.256;2023-07-08T10:30:27;4.70;;;4.03;;
48516;SDS011;34310;51.904;4.256;2023-07-08T10:33:09;4.90;;;4.25;;
48516;SDS011;34310;51.904;4.256;2023-07-08T10:35:50;5.15;;;4.40;;
48516;SDS011;34310;51.904;4.256;2023-07-08T10:38:29;6.93;;;4.45;;
48516;SDS011;34310;51.904;4.256;2023-07-08T10:41:04;5.30;;;4.32;;
48516;SDS011;34310;51.904;4.256;2023-07-08T11:06:24;6.10;;;5.15;;
48516;SDS011;34310;51.904;4.256;2023-07-08T11:09:01;6.43;;;5.18;;
48516;SDS011;34310;51.904;4.256;2023-07-08T11:11:43;6.47;;;5.03;;
48516;SDS011;34310;51.904;4.256;2023-07-08T11:14:22;6.53;;;5.40;;
48516;SDS011;34310;51.904;4.256;2023-07-08T11:17:04;6.28;;;5.35;;
48516;SDS011;34310;51.904;4.256;2023-07-08T11:20:13;6.97;;;5.93;;
48516;SDS011;34310;51.904;4.256;2023-07-08T11:22:50;6.32;;;5.35;;
48516;SDS011;34310;51.904;4.256;2023-07-08T11:25:24;5.95;;;5.30;;
48516;SDS011;34310;51.904;4.256;2023-07-08T11:27:55;5.78;;;5.15;;
48516;SDS011;34310;51.904;4.256;2023-07-08T11:30:26;5.97;;;5.32;;
48516;SDS011;34310;51.904;4.256;2023-07-08T11:33:02;5.55;;;5.00;;
48516;SDS011;34310;51.904;4.256;2023-07-08T11:35:43;6.38;;;5.47;;
48516;SDS011;34310;51.904;4.256;2023-07-08T11:38:19;5.88;;;5.28;;
48516;SDS011;34310;51.904;4.256;2023-07-08T11:41:03;6.07;;;5.20;;
48516;SDS011;34310;51.904;4.256;2023-07-08T11:43:53;6.57;;;5.72;;
48516;SDS011;34310;51.904;4.256;2023-07-08T11:46:31;6.55;;;5.60;;
48516;SDS011;34310;51.904;4.256;2023-07-08T11:49:12;6.18;;;5.40;;
48516;SDS011;34310;51.904;4.256;2023-07-08T11:51:42;5.90;;;5.30;;
48516;SDS011;34310;51.904;4.256;2023-07-08T11:57:00;7.45;;;6.03;;
48516;SDS011;34310;51.904;4.256;2023-07-08T11:59:32;6.60;;;5.80;;
48516;SDS011;34310;51.904;4.256;2023-07-08T12:02:09;6.35;;;5.50;;
48516;SDS011;34310;51.904;4.256;2023-07-08T12:07:31;5.90;;;5.30;;
48516;SDS011;34310;51.904;4.256;2023-07-08T12:13:01;7.10;;;6.40;;
48516;SDS011;34310;51.904;4.256;2023-07-08T12:15:30;6.72;;;5.88;;
48516;SDS011;34310;51.904;4.256;2023-07-08T12:18:05;8.18;;;6.20;;
48516;SDS011;34310;51.904;4.256;2023-07-08T12:20:56;7.32;;;6.57;;
48516;SDS011;34310;51.904;4.256;2023-07-08T12:23:26;6.18;;;5.57;;
48516;SDS011;34310;51.904;4.256;2023-07-08T12:25:55;6.70;;;6.00;;
48516;SDS011;34310;51.904;4.256;2023-07-08T12:28:26;7.05;;;6.05;;
48516;SDS011;34310;51.904;4.256;2023-07-08T12:30:53;7.35;;;6.15;;
48516;SDS011;34310;51.904;4.256;2023-07-08T12:33:26;7.03;;;6.03;;
48516;SDS011;34310;51.904;4.256;2023-07-08T12:35:57;7.78;;;6.45;;
48516;SDS011;34310;51.904;4.256;2023-07-08T12:38:28;7.20;;;6.00;;
48516;SDS011;34310;51.904;4.256;2023-07-08T12:40:57;6.57;;;5.88;;
48516;SDS011;34310;51.904;4.256;2023-07-08T12:43:27;6.82;;;6.00;;
48516;SDS011;34310;51.904;4.256;2023-07-08T12:45:54;6.80;;;6.10;;
48516;SDS011;34310;51.904;4.256;2023-07-08T12:48:22;6.80;;;6.10;;
48516;SDS011;34310;51.904;4.256;2023-07-08T12:50:50;6.53;;;5.85;;
48516;SDS011;34310;51.904;4.256;2023-07-08T12:53:17;7.15;;;5.78;;
48516;SDS011;34310;51.904;4.256;2023-07-08T12:55:45;6.30;;;5.70;;
48516;SDS011;34310;51.904;4.256;2023-07-08T12:58:25;7.10;;;6.40;;
48516;SDS011;34310;51.904;4.256;2023-07-08T13:00:59;6.70;;;6.00;;
48516;SDS011;34310;51.904;4.256;2023-07-08T13:03:31;6.93;;;6.03;;
48516;SDS011;34310;51.904;4.256;2023-07-08T13:06:03;6.80;;;6.10;;
48516;SDS011;34310;51.904;4.256;2023-07-08T13:08:34;6.40;;;5.80;;
48516;SDS011;34310;51.904;4.256;2023-07-08T13:11:03;6.97;;;6.28;;
48516;SDS011;34310;51.904;4.256;2023-07-08T13:13:39;6.70;;;6.00;;
48516;SDS011;34310;51.904;4.256;2023-07-08T13:16:13;6.78;;;6.07;;
48516;SDS011;34310;51.904;4.256;2023-07-08T13:18:41;7.65;;;6.35;;
48516;SDS011;34310;51.904;4.256;2023-07-08T13:21:10;6.63;;;5.97;;
48516;SDS011;34310;51.904;4.256;2023-07-08T13:23:41;6.70;;;6.00;;
48516;SDS011;34310;51.904;4.256;2023-07-08T13:26:14;6.03;;;5.43;;
48516;SDS011;34310;51.904;4.256;2023-07-08T13:28:46;6.30;;;5.70;;
48516;SDS011;34310;51.904;4.256;2023-07-08T13:31:17;6.10;;;5.50;;
48516;SDS011;34310;51.904;4.256;2023-07-08T13:33:54;6.07;;;5.47;;
48516;SDS011;34310;51.904;4.256;2023-07-08T13:36:23;6.63;;;5.80;;
48516;SDS011;34310;51.904;4.256;2023-07-08T13:38:55;6.25;;;5.65;;
48516;SDS011;34310;51.904;4.256;2023-07-08T13:41:23;6.38;;;5.72;;
48516;SDS011;34310;51.904;4.256;2023-07-08T13:43:51;6.80;;;5.57;;
48516;SDS011;34310;51.904;4.256;2023-07-08T13:46:26;6.13;;;5.53;;
48516;SDS011;34310;51.904;4.256;2023-07-08T13:49:02;6.25;;;5.57;;
48516;SDS011;34310;51.904;4.256;2023-07-08T13:51:36;6.78;;;5.70;;
48516;SDS011;34310;51.904;4.256;2023-07-08T13:54:24;7.13;;;5.50;;
48516;SDS011;34310;51.904;4.256;2023-07-08T13:56:59;6.30;;;5.65;;
48516;SDS011;34310;51.904;4.256;2023-07-08T13:59:28;5.75;;;5.15;;
48516;SDS011;34310;51.904;4.256;2023-07-08T14:01:56;6.10;;;5.50;;
48516;SDS011;34310;51.904;4.256;2023-07-08T14:04:29;5.43;;;4.93;;
48516;SDS011;34310;51.904;4.256;2023-07-08T14:06:59;6.13;;;5.43;;
48516;SDS011;34310;51.904;4.256;2023-07-08T14:09:26;5.65;;;5.15;;
48516;SDS011;34310;51.904;4.256;2023-07-08T14:11:54;5.95;;;5.30;;
48516;SDS011;34310;51.904;4.256;2023-07-08T14:14:21;5.78;;;5.20;;
48516;SDS011;34310;51.904;4.256;2023-07-08T14:16:49;6.30;;;5.60;;
48516;SDS011;34310;51.904;4.256;2023-07-08T14:19:20;5.40;;;4.90;;
48516;SDS011;34310;51.904;4.256;2023-07-08T14:21:51;5.72;;;4.97;;
48516;SDS011;34310;51.904;4.256;2023-07-08T14:24:24;5.40;;;4.90;;
48516;SDS011;34310;51.904;4.256;2023-07-08T14:26:52;5.63;;;5.13;;
48516;SDS011;34310;51.904;4.256;2023-07-08T14:29:19;5.82;;;5.22;;
48516;SDS011;34310;51.904;4.256;2023-07-08T14:31:47;5.47;;;4.88;;
48516;SDS011;34310;51.904;4.256;2023-07-08T14:34:24;6.00;;;5.32;;
48516;SDS011;34310;51.904;4.256;2023-07-08T14:36:53;5.70;;;5.10;;
48516;SDS011;34310;51.904;4.256;2023-07-08T14:39:20;5.30;;;4.80;;
48516;SDS011;34310;51.904;4.256;2023-07-08T14:41:48;5.88;;;5.28;;
48516;SDS011;34310;51.904;4.256;2023-07-08T14:46:49;6.60;;;4.82;;
48516;SDS011;34310;51.904;4.256;2023-07-08T14:49:18;5.55;;;4.95;;
48516;SDS011;34310;51.904;4.256;2023-07-08T14:51:47;5.57;;;4.97;;
48516;SDS011;34310;51.904;4.256;2023-07-08T14:54:14;5.57;;;4.95;;
48516;SDS011;34310;51.904;4.256;2023-07-08T14:56:43;5.93;;;5.28;;
48516;SDS011;34310;51.904;4.256;2023-07-08T14:59:12;5.30;;;4.80;;
48516;SDS011;34310;51.904;4.256;2023-07-08T15:01:42;5.43;;;4.85;;
48516;SDS011;34310;51.904;4.256;2023-07-08T15:04:12;5.35;;;4.82;;
48516;SDS011;34310;51.904;4.256;2023-07-08T15:06:41;5.18;;;4.68;;
48516;SDS011;34310;51.904;4.256;2023-07-08T15:09:09;5.65;;;4.72;;
48516;SDS011;34310;51.904;4.256;2023-07-08T15:11:38;5.28;;;4.78;;
48516;SDS011;34310;51.904;4.256;2023-07-08T15:14:20;5.60;;;5.00;;
48516;SDS011;34310;51.904;4.256;2023-07-08T15:16:50;4.97;;;4.47;;
48516;SDS011;34310;51.904;4.256;2023-07-08T15:19:18;5.35;;;4.80;;
48516;SDS011;34310;51.904;4.256;2023-07-08T15:21:47;5.40;;;4.90;;
48516;SDS011;34310;51.904;4.256;2023-07-08T15:24:14;5.18;;;4.68;;
48516;SDS011;34310;51.904;4.256;2023-07-08T15:26:46;5.40;;;4.90;;
48516;SDS011;34310;51.904;4.256;2023-07-08T15:29:16;5.32;;;4.78;;
48516;SDS011;34310;51.904;4.256;2023-07-08T15:31:47;5.00;;;4.50;;
48516;SDS011;34310;51.904;4.256;2023-07-08T15:34:19;5.72;;;4.68;;
48516;SDS011;34310;51.904;4.256;2023-07-08T15:36:47;5.28;;;4.78;;
48516;SDS011;34310;51.904;4.256;2023-07-08T15:39:15;4.93;;;4.43;;
48516;SDS011;34310;51.904;4.256;2023-07-08T15:41:42;4.70;;;4.30;;
48516;SDS011;34310;51.904;4.256;2023-07-08T15:44:10;5.72;;;5.13;;
48516;SDS011;34310;51.904;4.256;2023-07-08T15:46:42;5.97;;;5.18;;
48516;SDS011;34310;51.904;4.256;2023-07-08T15:49:15;5.10;;;4.60;;
48516;SDS011;34310;51.904;4.256;2023-07-08T15:51:45;4.88;;;4.38;;
48516;SDS011;34310;51.904;4.256;2023-07-08T15:54:16;5.05;;;4.55;;
48516;SDS011;34310;51.904;4.256;2023-07-08T15:56:45;5.13;;;4.63;;
48516;SDS011;34310;51.904;4.256;2023-07-08T15:59:19;5.20;;;4.70;;
48516;SDS011;34310;51.904;4.256;2023-07-08T16:01:50;4.88;;;4.38;;
48516;SDS011;34310;51.904;4.256;2023-07-08T16:04:33;4.97;;;4.57;;
48516;SDS011;34310;51.904;4.256;2023-07-08T16:07:01;5.28;;;4.78;;
48516;SDS011;34310;51.904;4.256;2023-07-08T16:09:29;5.10;;;4.60;;
48516;SDS011;34310;51.904;4.256;2023-07-08T16:11:56;5.03;;;4.53;;